Norfolk, NE

3:01 AM CDT on July 26, 2014 (GMT -0500)
West Central - Norfolk (KNENORFO2) Elev 1640 ft | 42.04 °N, 97.45 °W | Change Station

Current weather conditions updated 6 minutes ago

Clear
Clear
73.7 °F
Feels Like 73 °F
N
5.0
Wind Variable Wind from ESE
Gusts 10.0 mph

Today is forecast to be Warmer than yesterday. Afternoon showers and thunderstorms.

Today
High -- | Low -- °F
--% Chance of Precip.
Yesterday
High -- | Low -- °F
Precip. -- in
6:17 AM 8:54 PM
Waning Crescent, 0% visible
Pressure 29.75 in
Visibility 7.0 miles
Clouds Clear
Heat Index 73 °F
Dew Point 69 °F
Humidity 84%
Rainfall 0.00 in
Snow Depth Not available.
UV 0 out of 12
Pollen 7.20 out of 12
Air Quality Not available.
Flu Activity Not available.
METAR KOFK 260756Z AUTO 07006KT 7SM CLR 24/22 A2980 RMK AO2 RAE0659 TSE04 SLP074 P0000 T02390222

More Conditions Fewer Conditions

Pressure 29.75 in
Visibility 7.0 miles
Clouds Clear
Heat Index 73 °F
Dew Point 69 °F
Humidity 84%
Rainfall 0.00 in
Snow Depth Not available.
UV 0 out of 12
Pollen 7.20 out of 12
Air Quality Not available.
Flu Activity Not available.
METAR KOFK 260756Z AUTO 07006KT 7SM CLR 24/22 A2980 RMK AO2 RAE0659 TSE04 SLP074 P0000 T02390222

More Conditions Fewer Conditions

10-Day Weather Forecast

Almanac

Astronomy

Jul. 26, 2014 Rise Set
Actual Time 6:17 AM CDT 8:54 PM CDT
Civil Twilight 5:44 AM CDT 9:26 PM CDT
Nautical Twilight 5:04 AM CDT 10:06 PM CDT
Astronomical Twilight 4:18 AM CDT 10:52 PM CDT
Moon 6:12 AM CDT 8:28 PM CDT
Length of Visible Light 15h 41m
Length of Day
14h 37m
Tomorrow will be 1m 57s shorter.
Waning Crescent, 0% of the Moon is Illuminated
Today
Waning Crescent
Jul 26
New
Aug 3
First Quarter
Aug 10
Full
Aug 17
Last Quarter

Today's Extremes

State Highs State Lows

Community

WunderPhotos

Upload Photos

1,737,529 photos uploaded!

Nearby

Snow Depth

Station Depth Elevation
No new snow has been reported.

Earthquake Activity

City Distance Mag. Time & Date
No recent earthquake activity has been reported nearby.
Minimum magnitude displayed is 2.5.

Coastal Water Temperatures

Place Temperature
No Stations Reporting

Nearby Weather Stations

Station Location Temp. Heat Index Dew Point Humidity Wind Precip. Elev Updated Type
West Central - Norfolk, Norfolk, NE 73.7 °F 73 °F 69 °F 84% ESE  at  5.0 mph 0.00 in / hr 1640 ft 2:55 AM CDT Normal
Woodland Park, Norfolk, NE 73.9 °F 72 °F 71 °F 92% SE  at  5.4 mph 0.01 in / hr 1700 ft 3:01 AM CDT Rapid Fire
1 mile South of Wayne, Wayne, NE 74.5 °F 72 °F 73 °F 96% ESE  at  0.0 mph 0.00 in / hr 1463 ft 11:11 PM CDT Rapid Fire

Show More Stations Show Fewer Stations